Terminal Aerodrome Forecast
Issued by NWS Caribou, ME

Home | Current Version | Previous Version | Text Only | Print | Product List | Glossary On
Versions: 1 2 3 4 5 6 7 8 9 10 11 12 13 14 15 16 17 18 19
000
FTUS41 KCAR 290520
TAFBGR
TAF
KBGR 290520Z 2906/3006 00000KT P6SM SKC
     FM292100 18004KT P6SM SCT150 BKN250
     FM300400 15003KT P6SM BKN090 OVC150=

USA.gov is the U.S. government's official web portal to all federal, state and local government web resources and services.